Aérodrome :
LOGIN :

S'inscrire | Disclaimer

   EN    FR    IT 

 










Légende :    VFR   VFR Marginal   IFR   IFR Intensif   IFR Très Intensif
Visi : 
Plafond : 
>= 8 km
>= 3000ft
5 à 8 km
1000 à 3000 ft
1500m à 5 km
500 à 1000 ft
800 à 1500m
200 à 500 ft
< 800m
< 200 ft
Symboles :   Orages  Brouillard  Fortes neiges  Fortes précipitations  Vent > 20 kt
SIGMETs :   Divers  Orages  Givrage  Turbulence  Onde Orograph.  Cendres Volcan.







- Altitude de l'aérodrome : 70 ft
- Code IATA : LEI


LEAM - Almeria

DERNIER METAR :
  • 170730Z 23005KT 190V260 CAVOK 22/17 Q1016

METARs EXPIRÉS :
  • 170700Z VRB02KT CAVOK 26/11 Q1016
  • 170630Z 04004KT CAVOK 24/11 Q1015
  • 170600Z 04006KT CAVOK 23/12 Q1015
  • 170530Z 07003KT 020V130 CAVOK 20/12 Q1015
  • 170500Z 02005KT 350V060 CAVOK 22/12 Q1015
  • 170430Z 01003KT 330V030 CAVOK 20/15 Q1015

TAF TAF LEAM
Valide du 17 à 03h jusqu'au 18 à 03h UTC


170200Z 1703/1803 VRB03KT CAVOK TX35/1713Z TN19/1704Z
BECMG 1710/1712 12015KT
PROB40
TEMPO 1710/1720 09020G35KT
Pas de NOTAMs connus pour ce terrain.



MET'MAP, la Météo Aéronautique d'un coup d'oeil ! - Copyright ORBIFLY Décembre 2007 - Disclaimer

ORBIFLY MET'MAP TEAM :

Programmation & Développement : Alexandra Zaïnal
Conception & Développement : Baudouin d'Aumeries
Co-Programmation & Développement : Marc-Olivier Méhu
Soutien technique & logistique : Manuel Goepfert

Contact : metmap@orbifly.com




SOURCES & CREDITS :

   NOAA